Flight Track Log - Related Links

Times and Time Zones

All times are in EST time to prevent confusion due to time zone crossing. See the AAL621 flight status page for this flight to view local times or setup timezone preferences in your user account.

Time Position Orientation Groundspeed Altitude Reporting Facility
EST Latitude Longitude Course Direction KTS MPH feet Rate Location/Type
Thu 01:53:00 PM 33.4402 -112.5512 273° West  Level FlightAware Approximate
Thu 01:53:08 PM 33.3661 -111.8497 262° West 229 264 9,900  Level FlightAware ADS-B (VRMM / MLE)
Thu 01:53:18 PM 33.3662 -111.8626 274° West 242 278 10,100 1,740 Climbing FlightAware ADS-B (VRMM / MLE)
Thu 01:54:48 PM 33.3802 -112.0069 276° West 319 367 12,800 2,353 Climbing FlightAware ADS-B (VRMM / MLE)
Thu 01:55:51 PM 33.3901 -112.1149 276° West 318 366 16,100 2,942 Climbing FlightAware ADS-B (VRMM / MLE)
Thu 01:56:32 PM 33.3966 -112.1854 276° West 321 369 17,900 2,444 Climbing FlightAware ADS-B (VRMM / MLE)
Thu 01:57:12 PM 33.4031 -112.2569 276° West 325 374 19,400 2,308 Climbing FlightAware ADS-B (VRMM / MLE)
Thu 01:57:50 PM 33.4094 -112.3265 276° West 330 380 20,900 2,282 Climbing FlightAware ADS-B (VRMM / MLE)
Thu 01:58:23 PM 33.4148 -112.3862 276° West 331 381 22,100 2,095 Climbing FlightAware ADS-B (VRMM / MLE)
Thu 01:58:53 PM 33.4199 -112.4417 276° West 333 383 23,100 1,800 Climbing FlightAware ADS-B (VRMM / MLE)
Thu 01:59:23 PM 33.4247 -112.4959 276° West 336 387 23,900 885 Climbing FlightAware ADS-B (VRMM / MLE)
Thu 01:59:54 PM 33.4299 -112.5539 276° West 335 386 24,000 98 Climbing FlightAware ADS-B (VRMM / MLE)
Thu 02:00:24 PM 33.4347 -112.6094 276° West 336 387 24,000  Level FlightAware ADS-B (VRMM / MLE)
Thu 02:01:26 PM 33.4449 -112.7243 276° West 336 387 24,000  Level FlightAware ADS-B (VRMM / MLE)
Thu 02:01:57 PM 33.4499 -112.7815 276° West 336 387 24,000  Level FlightAware ADS-B (VRMM / MLE)
Thu 02:02:50 PM 33.4638 -112.8766 277° West 330 380 24,000  Level FlightAware ADS-B (VRMM / MLE)
Thu 02:03:44 PM 33.4806 -112.9631 277° West 330 380 24,000  Level Albuquerque Center
Thu 02:04:46 PM 33.5006 -113.0681 283° West 327 376 24,000  Level Albuquerque Center
Thu 02:05:49 PM 33.5217 -113.1747 283° West 328 377 24,000  Level Albuquerque Center
Thu 02:06:51 PM 33.5411 -113.2825 282° West 331 381 24,000  Level Albuquerque Center
Thu 02:07:53 PM 33.5617 -113.3903 283° West 332 382 24,000  Level Albuquerque Center
Thu 02:08:55 PM 33.5861 -113.5192 283° West 333 383 24,000 -48 Level Albuquerque Center
Thu 02:09:57 PM 33.6067 -113.6258 283° West 330 380 23,900  Descending Albuquerque Center
Thu 02:10:59 PM 33.6258 -113.7269 283° West 334 384 24,000 48 Climbing Albuquerque Center
Thu 02:12:01 PM 33.6433 -113.8353 281° West 332 382 24,000  Level Albuquerque Center
Thu 02:13:03 PM 33.6550 -113.9664 276° West 331 381 24,000  Level Albuquerque Center
Thu 02:14:05 PM 33.6672 -114.0789 277° West 337 388 24,000  Level Albuquerque Center
Thu 02:15:07 PM 33.6772 -114.1869 276° West 330 380 24,000  Level Albuquerque Center
Thu 02:16:09 PM 33.6883 -114.3014 277° West 327 376 24,000  Level Albuquerque Center
Thu 02:17:12 PM 33.6981 -114.4056 276° West 329 379 24,000  Level Los Angeles Center
Thu 02:18:13 PM 33.7114 -114.5378 277° West 334 384 24,000 -48 Level Los Angeles Center
Thu 02:19:16 PM 33.7214 -114.6489 276° West 334 384 23,900  Descending Los Angeles Center
Thu 02:20:19 PM 33.7308 -114.7547 276° West 326 375 24,000 48 Climbing Los Angeles Center
Thu 02:21:20 PM 33.7394 -114.8547 276° West 309 356 24,000  Level Los Angeles Center
Thu 02:22:24 PM 33.7492 -114.9569 277° West 307 353 24,000  Level Los Angeles Center
Thu 02:23:24 PM 33.7594 -115.0789 276° West 307 353 24,000  Level Los Angeles Center
Thu 02:24:26 PM 33.7683 -115.1825 276° West 311 358 24,000 -48 Level Los Angeles Center
Thu 02:25:29 PM 33.7772 -115.2836 276° West 307 353 23,900  Descending Los Angeles Center
Thu 02:30:04 PM 33.8169 -115.7644 276° West 309 356 24,000 14 Climbing FlightAware ADS-B (KBNG)
Thu 02:32:49 PM 33.8415 -116.0665 276° West 309 356 24,000 -49 Level FlightAware ADS-B (KBNG)
Thu 02:34:11 PM 33.8541 -116.2250 275° West 352 405 23,800 -393 Descending FlightAware ADS-B (KBNG)
Thu 02:34:51 PM 33.8601 -116.3010 275° West 345 397 23,200 -1,034 Descending FlightAware ADS-B (KBNG)
Thu 02:35:38 PM 33.8668 -116.3878 275° West 335 386 22,300 -1,063 Descending FlightAware ADS-B (KBNG)
Thu 02:36:10 PM 33.8714 -116.4467 274° West 339 390 21,800 -1,000 Descending FlightAware ADS-B (KBNG)
Thu 02:36:20 PM 33.8720 -116.4572 275° West 337 388 21,600 -1,800 Descending FlightAware ADS-B
Thu 02:36:50 PM 33.8744 -116.5167 273° West 337 388 20,600 -1,818 Descending FlightAware ADS-B (KBNG)
Thu 02:37:26 PM 33.8776 -116.5850 273° West 332 382 19,600 -1,909 Descending FlightAware ADS-B
Thu 02:37:56 PM 33.8801 -116.6396 273° West 327 376 18,500 -2,200 Descending FlightAware ADS-B
Thu 02:38:26 PM 33.8825 -116.6903 273° West 324 373 17,400 -2,522 Descending FlightAware ADS-B
Thu 02:39:05 PM 33.8858 -116.7629 273° West 320 368 15,600 -2,522 Descending FlightAware ADS-B (KBNG)
Thu 02:39:35 PM 33.8884 -116.8219 273° West 314 361 14,500 -1,882 Descending FlightAware ADS-B (KBNG)
Thu 02:39:56 PM 33.8879 -116.8567 261° West 311 358 14,000 -577 Descending FlightAware ADS-B (KBNG)
Thu 02:40:27 PM 33.8789 -116.9111 259° West 316 364 14,000 -82 Level FlightAware ADS-B (KBNG)
Thu 02:41:09 PM 33.8673 -116.9809 259° West 314 361 13,900 -585 Descending FlightAware ADS-B (KBNG)
Thu 02:41:49 PM 33.8552 -117.0534 259° West 310 357 13,200 -1,013 Descending FlightAware ADS-B (KBNG)
Thu 02:42:26 PM 33.8448 -117.1153 259° West 305 351 12,600 -913 Descending FlightAware ADS-B (KBNG)
Thu 02:42:35 PM 33.8429 -117.1265 259° West 304 350 12,500 -750 Descending FlightAware ADS-B
Thu 02:43:06 PM 33.8356 -117.1694 259° West 285 328 12,100 -885 Descending FlightAware ADS-B
Thu 02:43:36 PM 33.8270 -117.2194 259° West 267 307 11,600 -1,000 Descending FlightAware ADS-B
Thu 02:44:06 PM 33.8203 -117.2585 259° West 253 291 11,100 -875 Descending FlightAware ADS-B
Thu 02:45:12 PM 33.8064 -117.3405 258° West 220 253 10,200 -713 Descending FlightAware ADS-B (KBNG)
Thu 02:45:47 PM 33.7987 -117.3855 258° West 214 246 9,900 -632 Descending FlightAware ADS-B
Thu 02:46:09 PM 33.7940 -117.4129 259° West 217 250 9,600 -1,091 Descending FlightAware ADS-B
Thu 02:46:31 PM 33.7893 -117.4403 258° West 223 257 9,100 -1,377 Descending FlightAware ADS-B
Thu 02:47:10 PM 33.7810 -117.4880 259° West 227 261 8,200 -1,100 Descending FlightAware ADS-B
Thu 02:47:31 PM 33.7797 -117.5138 271° West 215 247 8,000 -316 Descending FlightAware ADS-B
Thu 02:47:48 PM 33.7800 -117.5329 270° West 215 247 8,000 -808 Level FlightAware ADS-B
Thu 02:48:23 PM 33.7801 -117.5742 271° West 221 254 7,300 -1,364 Descending FlightAware ADS-B
Thu 02:48:32 PM 33.7809 -117.5866 281° West 225 259 7,000 -1,765 Descending FlightAware ADS-B
Thu 02:48:40 PM 33.7823 -117.5925 289° West 225 259 6,800 -857 Descending FlightAware ADS-B
Thu 02:49:00 PM 33.7897 -117.6180 289° West 211 243 6,600 -286 Descending FlightAware ADS-B
Thu 02:49:22 PM 33.7964 -117.6419 289° West 192 221 6,600 -1,516 Level FlightAware ADS-B
Thu 02:50:31 PM 33.8156 -117.7087 289° West 202 232 4,300 -1,674 Descending FlightAware ADS-B
Thu 02:51:31 PM 33.8258 -117.7711 235° Southwest 185 213 3,000 -1,147 Descending FlightAware ADS-B
Thu 02:51:39 PM 33.8196 -117.7772 211° Southwest 183 211 3,000 -600 Level FlightAware ADS-B
Thu 02:52:01 PM 33.8039 -117.7873 208° Southwest 181 208 2,700 -837 Descending FlightAware ADS-B
Thu 02:52:22 PM 33.7903 -117.7962 209° Southwest 178 205 2,400 -759 Descending FlightAware ADS-B
Thu 02:53:28 PM 33.7478 -117.8222 209° Southwest 177 204 1,600 -750 Descending Los Angeles Center
Thu 02:54:30 PM 33.7111 -117.8461 208° Southwest 164 189 800 -629 Descending Los Angeles Center
Thu 02:55:32 PM 33.6719 -117.8697 207° Southwest 154 177 300 -484 Descending Los Angeles Center

Login

Don't have an account? Register now (free) for customized features, flight alerts, and more!